Terminal Aerodrome Forecast
Issued by NWS Binghamton, NY

Home | Current Version | Previous Version | Text Only | Print | Product List | Glossary On
Versions: 1 2 3 4 5 6 7 8 9 10 11 12 13 14 15 16 17 18 19
000
FTUS41 KBGM 211400 AAA
TAFSYR
TAF AMD
KSYR 211423Z 2114/2212 19015G25KT P6SM BKN050
      TEMPO 2115/2117 5SM SHRA BR BKN025 OVC040
     FM211700 23012G22KT P6SM SCT025 BKN040
      TEMPO 2118/2121 3SM TSRA BR OVC025CB
     FM212200 29010KT P6SM BKN050
     FM220400 28008KT P6SM OVC025=

USA.gov is the U.S. government's official web portal to all federal, state and local government web resources and services.